sensor_id;sensor_type;location;lat;lon;timestamp;P1;durP1;ratioP1;P2;durP2;ratioP2
15312;SDS011;7757;52.626;4.746;2023-05-10T00:02:39;8.73;;;1.60;;
15312;SDS011;7757;52.626;4.746;2023-05-10T00:05:27;7.05;;;1.63;;
15312;SDS011;7757;52.626;4.746;2023-05-10T00:08:13;6.25;;;1.40;;
15312;SDS011;7757;52.626;4.746;2023-05-10T00:11:07;7.40;;;1.60;;
15312;SDS011;7757;52.626;4.746;2023-05-10T00:16:38;6.15;;;1.73;;
15312;SDS011;7757;52.626;4.746;2023-05-10T00:19:25;6.82;;;1.70;;
15312;SDS011;7757;52.626;4.746;2023-05-10T00:22:10;5.68;;;1.60;;
15312;SDS011;7757;52.626;4.746;2023-05-10T00:24:56;6.93;;;1.50;;
15312;SDS011;7757;52.626;4.746;2023-05-10T00:27:41;7.20;;;1.70;;
15312;SDS011;7757;52.626;4.746;2023-05-10T00:30:29;6.22;;;1.70;;
15312;SDS011;7757;52.626;4.746;2023-05-10T00:33:15;7.35;;;1.75;;
15312;SDS011;7757;52.626;4.746;2023-05-10T00:36:02;6.57;;;1.65;;
15312;SDS011;7757;52.626;4.746;2023-05-10T00:38:47;7.22;;;1.63;;
15312;SDS011;7757;52.626;4.746;2023-05-10T00:41:33;6.82;;;1.80;;
15312;SDS011;7757;52.626;4.746;2023-05-10T00:44:20;7.38;;;1.90;;
15312;SDS011;7757;52.626;4.746;2023-05-10T00:47:05;7.38;;;1.75;;
15312;SDS011;7757;52.626;4.746;2023-05-10T00:49:51;9.18;;;1.80;;
15312;SDS011;7757;52.626;4.746;2023-05-10T00:52:38;7.15;;;1.55;;
15312;SDS011;7757;52.626;4.746;2023-05-10T00:55:31;7.20;;;1.75;;
15312;SDS011;7757;52.626;4.746;2023-05-10T00:58:16;8.82;;;1.92;;
15312;SDS011;7757;52.626;4.746;2023-05-10T01:01:04;7.43;;;1.33;;
15312;SDS011;7757;52.626;4.746;2023-05-10T01:03:52;8.48;;;1.83;;
15312;SDS011;7757;52.626;4.746;2023-05-10T01:06:38;5.05;;;1.60;;
15312;SDS011;7757;52.626;4.746;2023-05-10T01:09:25;6.78;;;1.80;;
15312;SDS011;7757;52.626;4.746;2023-05-10T01:12:11;6.93;;;1.50;;
15312;SDS011;7757;52.626;4.746;2023-05-10T01:14:56;5.57;;;1.60;;
15312;SDS011;7757;52.626;4.746;2023-05-10T01:17:42;7.07;;;1.60;;
15312;SDS011;7757;52.626;4.746;2023-05-10T01:20:32;10.80;;;2.92;;
15312;SDS011;7757;52.626;4.746;2023-05-10T01:23:31;8.13;;;1.75;;
15312;SDS011;7757;52.626;4.746;2023-05-10T01:26:44;9.65;;;2.00;;
15312;SDS011;7757;52.626;4.746;2023-05-10T01:33:19;7.70;;;1.60;;
15312;SDS011;7757;52.626;4.746;2023-05-10T01:36:13;8.10;;;2.00;;
15312;SDS011;7757;52.626;4.746;2023-05-10T01:39:10;6.72;;;1.77;;
15312;SDS011;7757;52.626;4.746;2023-05-10T01:42:03;7.93;;;1.80;;
15312;SDS011;7757;52.626;4.746;2023-05-10T01:44:54;6.75;;;1.80;;
15312;SDS011;7757;52.626;4.746;2023-05-10T01:47:43;6.85;;;1.75;;
15312;SDS011;7757;52.626;4.746;2023-05-10T01:50:33;6.10;;;1.77;;
15312;SDS011;7757;52.626;4.746;2023-05-10T01:53:20;8.77;;;1.77;;
15312;SDS011;7757;52.626;4.746;2023-05-10T01:56:07;7.90;;;2.20;;
15312;SDS011;7757;52.626;4.746;2023-05-10T01:58:53;8.43;;;1.92;;
15312;SDS011;7757;52.626;4.746;2023-05-10T02:01:40;6.90;;;1.90;;
15312;SDS011;7757;52.626;4.746;2023-05-10T02:04:27;8.60;;;1.88;;
15312;SDS011;7757;52.626;4.746;2023-05-10T02:07:22;8.10;;;1.70;;
15312;SDS011;7757;52.626;4.746;2023-05-10T02:10:15;5.90;;;1.70;;
15312;SDS011;7757;52.626;4.746;2023-05-10T02:13:01;7.03;;;1.65;;
15312;SDS011;7757;52.626;4.746;2023-05-10T02:15:50;6.60;;;1.60;;
15312;SDS011;7757;52.626;4.746;2023-05-10T02:18:37;6.75;;;1.77;;
15312;SDS011;7757;52.626;4.746;2023-05-10T02:21:25;9.15;;;2.00;;
15312;SDS011;7757;52.626;4.746;2023-05-10T02:24:17;6.40;;;1.67;;
15312;SDS011;7757;52.626;4.746;2023-05-10T02:27:04;5.93;;;1.50;;
15312;SDS011;7757;52.626;4.746;2023-05-10T02:29:51;7.32;;;1.80;;
15312;SDS011;7757;52.626;4.746;2023-05-10T02:32:38;5.95;;;1.70;;
15312;SDS011;7757;52.626;4.746;2023-05-10T02:35:24;7.78;;;1.88;;
15312;SDS011;7757;52.626;4.746;2023-05-10T02:38:11;10.43;;;1.80;;
15312;SDS011;7757;52.626;4.746;2023-05-10T02:40:58;9.32;;;1.90;;
15312;SDS011;7757;52.626;4.746;2023-05-10T02:43:44;5.57;;;1.52;;
15312;SDS011;7757;52.626;4.746;2023-05-10T02:46:34;7.53;;;1.85;;
15312;SDS011;7757;52.626;4.746;2023-05-10T02:49:20;7.55;;;1.67;;
15312;SDS011;7757;52.626;4.746;2023-05-10T02:52:06;4.72;;;1.42;;
15312;SDS011;7757;52.626;4.746;2023-05-10T02:54:55;7.30;;;1.85;;
15312;SDS011;7757;52.626;4.746;2023-05-10T02:57:46;5.47;;;1.52;;
15312;SDS011;7757;52.626;4.746;2023-05-10T03:00:35;8.27;;;1.88;;
15312;SDS011;7757;52.626;4.746;2023-05-10T03:03:21;7.00;;;1.58;;
15312;SDS011;7757;52.626;4.746;2023-05-10T03:06:09;6.60;;;1.70;;
15312;SDS011;7757;52.626;4.746;2023-05-10T03:09:01;4.43;;;1.42;;
15312;SDS011;7757;52.626;4.746;2023-05-10T03:11:53;6.30;;;1.60;;
15312;SDS011;7757;52.626;4.746;2023-05-10T03:14:54;6.45;;;1.70;;
15312;SDS011;7757;52.626;4.746;2023-05-10T03:17:46;5.95;;;1.70;;
15312;SDS011;7757;52.626;4.746;2023-05-10T03:20:42;5.40;;;1.50;;
15312;SDS011;7757;52.626;4.746;2023-05-10T03:23:35;5.43;;;1.60;;
15312;SDS011;7757;52.626;4.746;2023-05-10T03:26:24;9.63;;;1.67;;
15312;SDS011;7757;52.626;4.746;2023-05-10T03:29:14;6.03;;;1.50;;
15312;SDS011;7757;52.626;4.746;2023-05-10T03:32:05;5.93;;;1.70;;
15312;SDS011;7757;52.626;4.746;2023-05-10T03:34:50;6.75;;;1.75;;
15312;SDS011;7757;52.626;4.746;2023-05-10T03:37:35;6.57;;;1.65;;
15312;SDS011;7757;52.626;4.746;2023-05-10T03:40:21;5.75;;;1.52;;
15312;SDS011;7757;52.626;4.746;2023-05-10T03:43:07;5.75;;;1.50;;
15312;SDS011;7757;52.626;4.746;2023-05-10T03:45:52;5.60;;;1.30;;
15312;SDS011;7757;52.626;4.746;2023-05-10T03:48:50;4.82;;;1.25;;
15312;SDS011;7757;52.626;4.746;2023-05-10T03:51:35;6.43;;;1.73;;
15312;SDS011;7757;52.626;4.746;2023-05-10T03:54:21;5.57;;;1.60;;
15312;SDS011;7757;52.626;4.746;2023-05-10T03:57:06;4.35;;;1.40;;
15312;SDS011;7757;52.626;4.746;2023-05-10T03:59:52;5.78;;;1.60;;
15312;SDS011;7757;52.626;4.746;2023-05-10T04:02:40;6.78;;;1.77;;
15312;SDS011;7757;52.626;4.746;2023-05-10T04:05:44;5.28;;;1.58;;
15312;SDS011;7757;52.626;4.746;2023-05-10T04:08:29;5.38;;;1.70;;
15312;SDS011;7757;52.626;4.746;2023-05-10T04:11:30;6.28;;;1.70;;
15312;SDS011;7757;52.626;4.746;2023-05-10T04:14:15;7.53;;;1.63;;
15312;SDS011;7757;52.626;4.746;2023-05-10T04:17:00;6.90;;;2.08;;
15312;SDS011;7757;52.626;4.746;2023-05-10T04:19:46;5.68;;;1.50;;
15312;SDS011;7757;52.626;4.746;2023-05-10T04:22:33;6.47;;;1.77;;
15312;SDS011;7757;52.626;4.746;2023-05-10T04:25:18;7.85;;;1.90;;
15312;SDS011;7757;52.626;4.746;2023-05-10T04:28:04;6.32;;;1.90;;
15312;SDS011;7757;52.626;4.746;2023-05-10T04:31:00;7.13;;;1.80;;
15312;SDS011;7757;52.626;4.746;2023-05-10T04:33:46;7.03;;;1.75;;
15312;SDS011;7757;52.626;4.746;2023-05-10T04:36:37;6.28;;;1.58;;
15312;SDS011;7757;52.626;4.746;2023-05-10T04:39:32;6.32;;;1.50;;
15312;SDS011;7757;52.626;4.746;2023-05-10T04:42:20;3.40;;;1.40;;
15312;SDS011;7757;52.626;4.746;2023-05-10T04:45:10;6.07;;;1.70;;
15312;SDS011;7757;52.626;4.746;2023-05-10T04:47:55;7.45;;;1.83;;
15312;SDS011;7757;52.626;4.746;2023-05-10T04:50:41;7.57;;;1.67;;
15312;SDS011;7757;52.626;4.746;2023-05-10T04:53:29;7.07;;;1.65;;
15312;SDS011;7757;52.626;4.746;2023-05-10T04:56:19;6.47;;;1.70;;
15312;SDS011;7757;52.626;4.746;2023-05-10T04:59:05;5.35;;;1.50;;
15312;SDS011;7757;52.626;4.746;2023-05-10T05:01:51;6.93;;;1.90;;
15312;SDS011;7757;52.626;4.746;2023-05-10T05:04:36;6.53;;;1.60;;
15312;SDS011;7757;52.626;4.746;2023-05-10T05:07:21;7.07;;;1.92;;
15312;SDS011;7757;52.626;4.746;2023-05-10T05:10:16;7.00;;;1.73;;
15312;SDS011;7757;52.626;4.746;2023-05-10T05:13:05;6.05;;;1.75;;
15312;SDS011;7757;52.626;4.746;2023-05-10T05:15:51;7.88;;;1.92;;
15312;SDS011;7757;52.626;4.746;2023-05-10T05:18:36;5.70;;;1.60;;
15312;SDS011;7757;52.626;4.746;2023-05-10T05:21:29;7.28;;;1.65;;
15312;SDS011;7757;52.626;4.746;2023-05-10T05:24:15;6.35;;;1.60;;
15312;SDS011;7757;52.626;4.746;2023-05-10T05:27:01;5.40;;;1.67;;
15312;SDS011;7757;52.626;4.746;2023-05-10T05:29:56;4.72;;;1.60;;
15312;SDS011;7757;52.626;4.746;2023-05-10T05:32:51;6.50;;;1.73;;
15312;SDS011;7757;52.626;4.746;2023-05-10T05:35:36;7.40;;;1.70;;
15312;SDS011;7757;52.626;4.746;2023-05-10T05:38:22;6.80;;;1.52;;
15312;SDS011;7757;52.626;4.746;2023-05-10T05:41:07;6.10;;;1.77;;
15312;SDS011;7757;52.626;4.746;2023-05-10T05:43:53;10.52;;;2.25;;
15312;SDS011;7757;52.626;4.746;2023-05-10T05:46:40;6.80;;;2.10;;
15312;SDS011;7757;52.626;4.746;2023-05-10T05:49:25;9.98;;;2.05;;
15312;SDS011;7757;52.626;4.746;2023-05-10T05:52:10;5.82;;;1.80;;
15312;SDS011;7757;52.626;4.746;2023-05-10T05:54:56;8.75;;;2.10;;
15312;SDS011;7757;52.626;4.746;2023-05-10T05:57:44;5.57;;;1.65;;
15312;SDS011;7757;52.626;4.746;2023-05-10T06:00:31;8.18;;;2.20;;
15312;SDS011;7757;52.626;4.746;2023-05-10T06:03:18;8.18;;;2.22;;
15312;SDS011;7757;52.626;4.746;2023-05-10T06:06:04;10.63;;;2.28;;
15312;SDS011;7757;52.626;4.746;2023-05-10T06:08:50;11.95;;;2.00;;
15312;SDS011;7757;52.626;4.746;2023-05-10T06:11:36;9.70;;;2.13;;
15312;SDS011;7757;52.626;4.746;2023-05-10T06:14:30;13.45;;;2.50;;
15312;SDS011;7757;52.626;4.746;2023-05-10T06:17:19;11.15;;;2.15;;
15312;SDS011;7757;52.626;4.746;2023-05-10T06:20:12;10.02;;;2.40;;
15312;SDS011;7757;52.626;4.746;2023-05-10T06:22:57;10.85;;;2.40;;
15312;SDS011;7757;52.626;4.746;2023-05-10T06:25:43;10.85;;;2.30;;
15312;SDS011;7757;52.626;4.746;2023-05-10T06:28:28;10.90;;;2.40;;
15312;SDS011;7757;52.626;4.746;2023-05-10T06:31:14;10.73;;;2.70;;
15312;SDS011;7757;52.626;4.746;2023-05-10T06:34:00;12.57;;;2.47;;
15312;SDS011;7757;52.626;4.746;2023-05-10T06:36:53;10.10;;;2.40;;
15312;SDS011;7757;52.626;4.746;2023-05-10T06:39:38;12.32;;;2.33;;
15312;SDS011;7757;52.626;4.746;2023-05-10T06:42:31;11.68;;;3.13;;
15312;SDS011;7757;52.626;4.746;2023-05-10T06:45:16;11.02;;;2.90;;
15312;SDS011;7757;52.626;4.746;2023-05-10T06:48:11;9.10;;;2.40;;
15312;SDS011;7757;52.626;4.746;2023-05-10T06:50:56;14.73;;;2.70;;
15312;SDS011;7757;52.626;4.746;2023-05-10T06:53:43;11.07;;;2.58;;
15312;SDS011;7757;52.626;4.746;2023-05-10T06:56:28;10.68;;;2.60;;
15312;SDS011;7757;52.626;4.746;2023-05-10T06:59:14;10.25;;;2.20;;
15312;SDS011;7757;52.626;4.746;2023-05-10T07:02:03;9.90;;;3.20;;
15312;SDS011;7757;52.626;4.746;2023-05-10T07:04:51;11.35;;;2.72;;
15312;SDS011;7757;52.626;4.746;2023-05-10T07:07:37;10.70;;;2.70;;
15312;SDS011;7757;52.626;4.746;2023-05-10T07:10:23;8.18;;;2.40;;
15312;SDS011;7757;52.626;4.746;2023-05-10T07:13:09;11.13;;;2.38;;
15312;SDS011;7757;52.626;4.746;2023-05-10T07:16:00;11.10;;;2.75;;
15312;SDS011;7757;52.626;4.746;2023-05-10T07:18:46;10.23;;;2.63;;
15312;SDS011;7757;52.626;4.746;2023-05-10T07:21:34;9.63;;;2.60;;
15312;SDS011;7757;52.626;4.746;2023-05-10T07:24:19;9.18;;;2.90;;
15312;SDS011;7757;52.626;4.746;2023-05-10T07:27:06;10.13;;;2.72;;
15312;SDS011;7757;52.626;4.746;2023-05-10T07:29:51;13.35;;;3.38;;
15312;SDS011;7757;52.626;4.746;2023-05-10T07:32:37;8.55;;;2.85;;
15312;SDS011;7757;52.626;4.746;2023-05-10T07:35:23;8.40;;;2.25;;
15312;SDS011;7757;52.626;4.746;2023-05-10T07:38:14;9.35;;;2.55;;
15312;SDS011;7757;52.626;4.746;2023-05-10T07:41:01;9.00;;;2.60;;
15312;SDS011;7757;52.626;4.746;2023-05-10T07:43:48;7.95;;;2.25;;
15312;SDS011;7757;52.626;4.746;2023-05-10T07:46:36;11.02;;;3.40;;
15312;SDS011;7757;52.626;4.746;2023-05-10T07:49:21;10.20;;;2.53;;
15312;SDS011;7757;52.626;4.746;2023-05-10T07:52:08;11.00;;;2.42;;
15312;SDS011;7757;52.626;4.746;2023-05-10T07:54:56;9.85;;;3.20;;
15312;SDS011;7757;52.626;4.746;2023-05-10T07:57:42;9.32;;;2.67;;
15312;SDS011;7757;52.626;4.746;2023-05-10T08:00:29;10.60;;;2.92;;
15312;SDS011;7757;52.626;4.746;2023-05-10T08:03:17;9.25;;;2.65;;
15312;SDS011;7757;52.626;4.746;2023-05-10T08:06:05;9.70;;;2.85;;
15312;SDS011;7757;52.626;4.746;2023-05-10T08:08:50;10.18;;;3.80;;
15312;SDS011;7757;52.626;4.746;2023-05-10T08:11:37;9.38;;;2.70;;
15312;SDS011;7757;52.626;4.746;2023-05-10T08:14:23;10.82;;;3.13;;
15312;SDS011;7757;52.626;4.746;2023-05-10T08:17:09;10.45;;;2.65;;
15312;SDS011;7757;52.626;4.746;2023-05-10T08:19:58;8.23;;;2.33;;
15312;SDS011;7757;52.626;4.746;2023-05-10T08:22:46;8.20;;;2.50;;
15312;SDS011;7757;52.626;4.746;2023-05-10T08:25:35;9.73;;;2.78;;
15312;SDS011;7757;52.626;4.746;2023-05-10T08:28:20;9.48;;;2.88;;
15312;SDS011;7757;52.626;4.746;2023-05-10T08:31:09;11.80;;;2.88;;
15312;SDS011;7757;52.626;4.746;2023-05-10T08:33:59;8.88;;;2.55;;
15312;SDS011;7757;52.626;4.746;2023-05-10T08:36:44;9.55;;;2.58;;
15312;SDS011;7757;52.626;4.746;2023-05-10T08:39:35;10.15;;;2.85;;
15312;SDS011;7757;52.626;4.746;2023-05-10T08:42:21;9.85;;;2.58;;
15312;SDS011;7757;52.626;4.746;2023-05-10T08:45:20;8.80;;;2.70;;
15312;SDS011;7757;52.626;4.746;2023-05-10T08:48:11;8.73;;;2.58;;
15312;SDS011;7757;52.626;4.746;2023-05-10T08:50:58;8.75;;;2.40;;
15312;SDS011;7757;52.626;4.746;2023-05-10T08:53:48;9.85;;;3.05;;
15312;SDS011;7757;52.626;4.746;2023-05-10T08:56:40;10.10;;;2.85;;
15312;SDS011;7757;52.626;4.746;2023-05-10T08:59:41;10.63;;;3.50;;
15312;SDS011;7757;52.626;4.746;2023-05-10T09:02:33;8.90;;;2.67;;
15312;SDS011;7757;52.626;4.746;2023-05-10T09:05:34;9.05;;;2.70;;
15312;SDS011;7757;52.626;4.746;2023-05-10T09:08:22;8.65;;;2.75;;
15312;SDS011;7757;52.626;4.746;2023-05-10T09:11:09;9.70;;;2.78;;
15312;SDS011;7757;52.626;4.746;2023-05-10T09:13:58;9.60;;;2.95;;
15312;SDS011;7757;52.626;4.746;2023-05-10T09:16:45;8.95;;;2.53;;
15312;SDS011;7757;52.626;4.746;2023-05-10T09:19:44;9.55;;;2.97;;
15312;SDS011;7757;52.626;4.746;2023-05-10T09:22:39;11.25;;;3.22;;
15312;SDS011;7757;52.626;4.746;2023-05-10T09:25:42;9.70;;;3.15;;
15312;SDS011;7757;52.626;4.746;2023-05-10T09:28:31;9.95;;;2.80;;
15312;SDS011;7757;52.626;4.746;2023-05-10T09:31:16;10.43;;;3.05;;
15312;SDS011;7757;52.626;4.746;2023-05-10T09:34:02;9.15;;;2.88;;
15312;SDS011;7757;52.626;4.746;2023-05-10T09:37:02;9.02;;;2.83;;
15312;SDS011;7757;52.626;4.746;2023-05-10T09:39:47;9.40;;;3.08;;
15312;SDS011;7757;52.626;4.746;2023-05-10T09:42:41;9.48;;;3.10;;
15312;SDS011;7757;52.626;4.746;2023-05-10T09:45:27;8.43;;;2.60;;
15312;SDS011;7757;52.626;4.746;2023-05-10T09:48:14;9.35;;;2.92;;
15312;SDS011;7757;52.626;4.746;2023-05-10T09:50:59;10.90;;;3.05;;
15312;SDS011;7757;52.626;4.746;2023-05-10T09:54:08;10.35;;;3.00;;
15312;SDS011;7757;52.626;4.746;2023-05-10T09:56:55;11.35;;;3.50;;
15312;SDS011;7757;52.626;4.746;2023-05-10T09:59:43;10.43;;;3.70;;
15312;SDS011;7757;52.626;4.746;2023-05-10T10:02:32;10.40;;;3.38;;
15312;SDS011;7757;52.626;4.746;2023-05-10T10:05:20;11.05;;;3.30;;
15312;SDS011;7757;52.626;4.746;2023-05-10T10:08:05;9.35;;;3.00;;
15312;SDS011;7757;52.626;4.746;2023-05-10T10:10:51;9.98;;;3.10;;
15312;SDS011;7757;52.626;4.746;2023-05-10T10:13:37;9.77;;;3.30;;
15312;SDS011;7757;52.626;4.746;2023-05-10T10:16:24;10.25;;;3.33;;
15312;SDS011;7757;52.626;4.746;2023-05-10T10:19:09;11.25;;;3.50;;
15312;SDS011;7757;52.626;4.746;2023-05-10T10:21:55;9.90;;;3.28;;
15312;SDS011;7757;52.626;4.746;2023-05-10T10:24:40;12.07;;;3.92;;
15312;SDS011;7757;52.626;4.746;2023-05-10T10:27:28;12.65;;;3.67;;
15312;SDS011;7757;52.626;4.746;2023-05-10T10:30:23;11.43;;;3.20;;
15312;SDS011;7757;52.626;4.746;2023-05-10T10:33:24;10.57;;;3.60;;
15312;SDS011;7757;52.626;4.746;2023-05-10T10:36:18;11.63;;;3.70;;
15312;SDS011;7757;52.626;4.746;2023-05-10T10:39:08;11.25;;;3.40;;
15312;SDS011;7757;52.626;4.746;2023-05-10T10:41:55;9.88;;;3.33;;
15312;SDS011;7757;52.626;4.746;2023-05-10T10:44:41;10.32;;;3.47;;
15312;SDS011;7757;52.626;4.746;2023-05-10T10:47:28;11.63;;;3.90;;
15312;SDS011;7757;52.626;4.746;2023-05-10T10:50:18;11.77;;;3.60;;
15312;SDS011;7757;52.626;4.746;2023-05-10T10:53:10;10.80;;;3.22;;
15312;SDS011;7757;52.626;4.746;2023-05-10T10:56:02;10.27;;;3.60;;
15312;SDS011;7757;52.626;4.746;2023-05-10T10:58:51;10.45;;;3.60;;
15312;SDS011;7757;52.626;4.746;2023-05-10T11:01:37;10.13;;;3.55;;
15312;SDS011;7757;52.626;4.746;2023-05-10T11:04:28;10.55;;;3.50;;
15312;SDS011;7757;52.626;4.746;2023-05-10T11:07:18;10.95;;;3.58;;
15312;SDS011;7757;52.626;4.746;2023-05-10T11:10:04;11.13;;;3.72;;
15312;SDS011;7757;52.626;4.746;2023-05-10T11:12:53;10.88;;;3.63;;
15312;SDS011;7757;52.626;4.746;2023-05-10T11:15:47;9.77;;;3.00;;
15312;SDS011;7757;52.626;4.746;2023-05-10T11:18:35;10.10;;;3.20;;
15312;SDS011;7757;52.626;4.746;2023-05-10T11:21:21;10.90;;;3.67;;
15312;SDS011;7757;52.626;4.746;2023-05-10T11:24:12;10.80;;;3.55;;
15312;SDS011;7757;52.626;4.746;2023-05-10T11:26:58;9.93;;;3.03;;
15312;SDS011;7757;52.626;4.746;2023-05-10T11:29:44;11.20;;;3.17;;
15312;SDS011;7757;52.626;4.746;2023-05-10T11:32:29;11.43;;;3.15;;
15312;SDS011;7757;52.626;4.746;2023-05-10T11:35:15;12.90;;;3.50;;
15312;SDS011;7757;52.626;4.746;2023-05-10T11:38:00;10.95;;;3.42;;
15312;SDS011;7757;52.626;4.746;2023-05-10T11:40:47;11.95;;;3.22;;
15312;SDS011;7757;52.626;4.746;2023-05-10T11:43:38;9.75;;;3.38;;
15312;SDS011;7757;52.626;4.746;2023-05-10T11:46:24;8.95;;;3.00;;
15312;SDS011;7757;52.626;4.746;2023-05-10T11:49:10;12.73;;;3.20;;
15312;SDS011;7757;52.626;4.746;2023-05-10T11:52:03;15.43;;;3.75;;
15312;SDS011;7757;52.626;4.746;2023-05-10T11:54:53;11.93;;;3.33;;
15312;SDS011;7757;52.626;4.746;2023-05-10T11:57:40;9.85;;;3.50;;
15312;SDS011;7757;52.626;4.746;2023-05-10T12:00:28;10.32;;;3.38;;
15312;SDS011;7757;52.626;4.746;2023-05-10T12:03:14;11.50;;;3.30;;
15312;SDS011;7757;52.626;4.746;2023-05-10T12:06:00;11.07;;;3.15;;
15312;SDS011;7757;52.626;4.746;2023-05-10T12:08:47;10.98;;;3.20;;
15312;SDS011;7757;52.626;4.746;2023-05-10T12:11:36;13.30;;;3.22;;
15312;SDS011;7757;52.626;4.746;2023-05-10T12:14:23;10.93;;;3.13;;
15312;SDS011;7757;52.626;4.746;2023-05-10T12:17:11;9.55;;;3.05;;
15312;SDS011;7757;52.626;4.746;2023-05-10T12:19:58;12.25;;;2.95;;
15312;SDS011;7757;52.626;4.746;2023-05-10T12:22:48;11.63;;;3.35;;
15312;SDS011;7757;52.626;4.746;2023-05-10T12:25:35;10.25;;;3.05;;
15312;SDS011;7757;52.626;4.746;2023-05-10T12:28:22;9.27;;;2.75;;
15312;SDS011;7757;52.626;4.746;2023-05-10T12:31:09;10.93;;;3.22;;
15312;SDS011;7757;52.626;4.746;2023-05-10T12:33:54;11.02;;;2.83;;
15312;SDS011;7757;52.626;4.746;2023-05-10T12:36:40;10.13;;;2.80;;
15312;SDS011;7757;52.626;4.746;2023-05-10T12:39:25;9.25;;;3.10;;
15312;SDS011;7757;52.626;4.746;2023-05-10T12:42:22;10.52;;;3.33;;
15312;SDS011;7757;52.626;4.746;2023-05-10T12:45:08;10.98;;;3.20;;
15312;SDS011;7757;52.626;4.746;2023-05-10T12:47:57;9.15;;;2.80;;
15312;SDS011;7757;52.626;4.746;2023-05-10T12:50:42;9.82;;;2.80;;
15312;SDS011;7757;52.626;4.746;2023-05-10T12:53:28;10.43;;;3.03;;
15312;SDS011;7757;52.626;4.746;2023-05-10T12:56:14;9.35;;;2.67;;
15312;SDS011;7757;52.626;4.746;2023-05-10T12:58:59;8.60;;;2.67;;
15312;SDS011;7757;52.626;4.746;2023-05-10T13:01:45;9.20;;;2.80;;
15312;SDS011;7757;52.626;4.746;2023-05-10T13:04:32;9.50;;;2.80;;
15312;SDS011;7757;52.626;4.746;2023-05-10T13:07:17;9.73;;;2.83;;
15312;SDS011;7757;52.626;4.746;2023-05-10T13:10:03;11.40;;;2.70;;
15312;SDS011;7757;52.626;4.746;2023-05-10T13:12:49;9.35;;;3.00;;
15312;SDS011;7757;52.626;4.746;2023-05-10T13:15:34;9.10;;;2.60;;
15312;SDS011;7757;52.626;4.746;2023-05-10T13:18:20;11.52;;;2.90;;
15312;SDS011;7757;52.626;4.746;2023-05-10T13:21:06;9.20;;;2.80;;
15312;SDS011;7757;52.626;4.746;2023-05-10T13:23:52;8.77;;;2.63;;
15312;SDS011;7757;52.626;4.746;2023-05-10T13:26:38;12.13;;;3.05;;
15312;SDS011;7757;52.626;4.746;2023-05-10T13:29:23;11.70;;;2.75;;
15312;SDS011;7757;52.626;4.746;2023-05-10T13:32:09;8.88;;;2.75;;
15312;SDS011;7757;52.626;4.746;2023-05-10T13:34:54;8.95;;;2.80;;
15312;SDS011;7757;52.626;4.746;2023-05-10T13:37:41;8.18;;;2.60;;
15312;SDS011;7757;52.626;4.746;2023-05-10T13:40:26;9.95;;;2.97;;
15312;SDS011;7757;52.626;4.746;2023-05-10T13:43:12;8.80;;;2.70;;
15312;SDS011;7757;52.626;4.746;2023-05-10T13:45:58;8.73;;;2.75;;
15312;SDS011;7757;52.626;4.746;2023-05-10T13:48:43;8.55;;;2.70;;
15312;SDS011;7757;52.626;4.746;2023-05-10T13:51:28;9.40;;;2.80;;
15312;SDS011;7757;52.626;4.746;2023-05-10T13:54:16;8.63;;;2.80;;
15312;SDS011;7757;52.626;4.746;2023-05-10T13:57:02;8.52;;;2.63;;
15312;SDS011;7757;52.626;4.746;2023-05-10T13:59:48;9.57;;;2.70;;
15312;SDS011;7757;52.626;4.746;2023-05-10T14:02:34;8.45;;;2.35;;
15312;SDS011;7757;52.626;4.746;2023-05-10T14:05:19;8.45;;;2.70;;
15312;SDS011;7757;52.626;4.746;2023-05-10T14:08:05;8.77;;;2.60;;
15312;SDS011;7757;52.626;4.746;2023-05-10T14:10:54;8.50;;;2.60;;
15312;SDS011;7757;52.626;4.746;2023-05-10T14:13:40;7.85;;;2.42;;
15312;SDS011;7757;52.626;4.746;2023-05-10T14:16:25;8.60;;;2.40;;
15312;SDS011;7757;52.626;4.746;2023-05-10T14:19:11;8.45;;;2.45;;
15312;SDS011;7757;52.626;4.746;2023-05-10T14:21:57;8.15;;;2.47;;
15312;SDS011;7757;52.626;4.746;2023-05-10T14:24:43;9.65;;;2.60;;
15312;SDS011;7757;52.626;4.746;2023-05-10T14:27:31;7.88;;;2.30;;
15312;SDS011;7757;52.626;4.746;2023-05-10T14:30:17;8.25;;;2.42;;
15312;SDS011;7757;52.626;4.746;2023-05-10T14:33:02;8.27;;;2.70;;
15312;SDS011;7757;52.626;4.746;2023-05-10T14:35:47;7.85;;;2.60;;
15312;SDS011;7757;52.626;4.746;2023-05-10T14:38:33;8.77;;;2.80;;
15312;SDS011;7757;52.626;4.746;2023-05-10T14:41:19;9.90;;;2.25;;
15312;SDS011;7757;52.626;4.746;2023-05-10T14:44:05;8.73;;;2.40;;
15312;SDS011;7757;52.626;4.746;2023-05-10T14:46:51;7.32;;;2.13;;
15312;SDS011;7757;52.626;4.746;2023-05-10T14:49:36;7.30;;;2.28;;
15312;SDS011;7757;52.626;4.746;2023-05-10T14:52:21;9.77;;;2.60;;
15312;SDS011;7757;52.626;4.746;2023-05-10T14:55:07;7.47;;;2.08;;
15312;SDS011;7757;52.626;4.746;2023-05-10T14:57:53;7.68;;;2.42;;
15312;SDS011;7757;52.626;4.746;2023-05-10T15:00:41;9.25;;;2.60;;
15312;SDS011;7757;52.626;4.746;2023-05-10T15:03:27;8.80;;;2.45;;
15312;SDS011;7757;52.626;4.746;2023-05-10T15:06:13;7.95;;;2.30;;
15312;SDS011;7757;52.626;4.746;2023-05-10T15:08:59;8.02;;;2.50;;
15312;SDS011;7757;52.626;4.746;2023-05-10T15:11:45;7.57;;;2.25;;
15312;SDS011;7757;52.626;4.746;2023-05-10T15:14:31;8.80;;;2.60;;
15312;SDS011;7757;52.626;4.746;2023-05-10T15:17:18;8.30;;;2.30;;
15312;SDS011;7757;52.626;4.746;2023-05-10T15:20:03;7.97;;;2.40;;
15312;SDS011;7757;52.626;4.746;2023-05-10T15:22:49;9.85;;;2.50;;
15312;SDS011;7757;52.626;4.746;2023-05-10T15:25:34;15.10;;;2.90;;
15312;SDS011;7757;52.626;4.746;2023-05-10T15:28:21;9.02;;;3.00;;
15312;SDS011;7757;52.626;4.746;2023-05-10T15:31:06;10.57;;;2.85;;
15312;SDS011;7757;52.626;4.746;2023-05-10T15:33:53;10.63;;;3.00;;
15312;SDS011;7757;52.626;4.746;2023-05-10T15:36:42;9.38;;;3.00;;
15312;SDS011;7757;52.626;4.746;2023-05-10T15:39:27;9.68;;;2.85;;
15312;SDS011;7757;52.626;4.746;2023-05-10T15:42:13;12.77;;;3.15;;
15312;SDS011;7757;52.626;4.746;2023-05-10T15:44:58;9.27;;;3.13;;
15312;SDS011;7757;52.626;4.746;2023-05-10T15:47:43;9.13;;;2.80;;
15312;SDS011;7757;52.626;4.746;2023-05-10T15:50:30;8.50;;;2.63;;
15312;SDS011;7757;52.626;4.746;2023-05-10T15:53:15;12.68;;;3.00;;
15312;SDS011;7757;52.626;4.746;2023-05-10T15:56:01;9.40;;;3.30;;
15312;SDS011;7757;52.626;4.746;2023-05-10T15:58:46;8.52;;;2.60;;
15312;SDS011;7757;52.626;4.746;2023-05-10T16:01:32;9.45;;;2.88;;
15312;SDS011;7757;52.626;4.746;2023-05-10T16:04:17;8.77;;;2.78;;
15312;SDS011;7757;52.626;4.746;2023-05-10T16:07:05;7.78;;;2.40;;
15312;SDS011;7757;52.626;4.746;2023-05-10T16:09:50;9.55;;;2.80;;
15312;SDS011;7757;52.626;4.746;2023-05-10T16:12:37;9.82;;;2.70;;
15312;SDS011;7757;52.626;4.746;2023-05-10T16:15:22;8.30;;;2.90;;
15312;SDS011;7757;52.626;4.746;2023-05-10T16:18:08;8.68;;;2.55;;
15312;SDS011;7757;52.626;4.746;2023-05-10T16:20:54;8.95;;;2.70;;
15312;SDS011;7757;52.626;4.746;2023-05-10T16:23:40;8.80;;;2.60;;
15312;SDS011;7757;52.626;4.746;2023-05-10T16:26:29;8.32;;;2.45;;
15312;SDS011;7757;52.626;4.746;2023-05-10T16:29:14;9.88;;;2.60;;
15312;SDS011;7757;52.626;4.746;2023-05-10T16:32:00;9.55;;;2.60;;
15312;SDS011;7757;52.626;4.746;2023-05-10T16:34:45;10.38;;;2.70;;
15312;SDS011;7757;52.626;4.746;2023-05-10T16:37:30;7.65;;;2.42;;
15312;SDS011;7757;52.626;4.746;2023-05-10T16:40:18;9.65;;;3.10;;
15312;SDS011;7757;52.626;4.746;2023-05-10T16:43:03;9.43;;;2.90;;
15312;SDS011;7757;52.626;4.746;2023-05-10T16:45:49;10.55;;;2.97;;
15312;SDS011;7757;52.626;4.746;2023-05-10T16:48:34;9.38;;;2.88;;
15312;SDS011;7757;52.626;4.746;2023-05-10T16:51:20;9.32;;;2.92;;
15312;SDS011;7757;52.626;4.746;2023-05-10T16:54:05;8.90;;;2.65;;
15312;SDS011;7757;52.626;4.746;2023-05-10T16:56:52;8.63;;;2.83;;
15312;SDS011;7757;52.626;4.746;2023-05-10T16:59:37;9.68;;;3.08;;
15312;SDS011;7757;52.626;4.746;2023-05-10T17:02:23;9.65;;;2.90;;
15312;SDS011;7757;52.626;4.746;2023-05-10T17:05:09;9.90;;;2.88;;
15312;SDS011;7757;52.626;4.746;2023-05-10T17:07:54;9.52;;;3.10;;
15312;SDS011;7757;52.626;4.746;2023-05-10T17:10:40;10.75;;;3.00;;